Sid Moller — WDF9421 — position and weather

sailwx.info

Track history (hours):
 
Tides and Currents Weather Stations Pressure Air Temp Water Temp Dewpoint Dewpoint Depression Visibility Wind Speed Wind Dir Waves Ship Positions

Sid Moller

Owner: Genesis Marine, LLC, Houston, TX. More information available from US FCC via Universal Licensing System and Coast Guard Vessel Documentation Center.

Last reported at 2017-Jan-15 23:33 UTC. Time now 2017-Jan-16 10:55 UTC.
Position N 29°46' W 095°05'.

Length 26 m; draft 3 m.

Type: Ship (hazmat cat A). MMSI: 367504980.

Date/timePositionNaut miles runAvg speedWind from/ knotsBaromVisibWave heightAir tempDewpointWater temp
2017-Jan-15 23:33N 29°46' W 095°05'0 0.0
2017-Jan-15 22:33N 29°46' W 095°05'0 0.0
2017-Jan-15 21:33N 29°46' W 095°05'0 0.0
2017-Jan-15 20:33N 29°46' W 095°05'0 0.0
2017-Jan-15 19:33N 29°46' W 095°05'0 0.0
2017-Jan-15 18:33N 29°46' W 095°05'0 0.0
2017-Jan-15 17:33N 29°46' W 095°05'0 0.0
2017-Jan-15 16:33N 29°46' W 095°05'0 0.0
2017-Jan-15 15:33N 29°46' W 095°05'0 0.0
2017-Jan-15 14:33N 29°46' W 095°05'0 0.0
2017-Jan-14 23:28N 29°46' W 095°05'0 0.0
2017-Jan-14 22:33N 29°46' W 095°05'0 0.1
2017-Jan-14 21:33N 29°46' W 095°05'0 0.0
2017-Jan-14 20:33N 29°46' W 095°05'0 0.0
2017-Jan-14 19:33N 29°46' W 095°05'1 1.2
2017-Jan-14 18:33N 29°46' W 095°06'0 0.1
2017-Jan-14 17:24N 29°46' W 095°06'0 0.0
2017-Jan-14 16:20N 29°46' W 095°06'0 0.0
2017-Jan-14 15:29N 29°46' W 095°06'1 0.1
2017-Jan-13 23:31N 29°46' W 095°05'0 0.0
2017-Jan-13 22:33N 29°46' W 095°05'0 0.0
2017-Jan-13 21:33N 29°46' W 095°05'0 0.0
2017-Jan-13 20:33N 29°46' W 095°05'0 0.0
2017-Jan-13 19:33N 29°46' W 095°05'0 0.0
2017-Jan-13 18:33N 29°46' W 095°05'0 0.0
2017-Jan-13 17:33N 29°46' W 095°05'0 0.0
2017-Jan-13 16:33N 29°46' W 095°05'0 0.0
2017-Jan-13 15:33N 29°46' W 095°05'0 0.0
2017-Jan-13 14:33N 29°46' W 095°05'0 0.0
2017-Jan-13 12:09N 29°46' W 095°05'0 0.0
2017-Jan-12 23:33N 29°46' W 095°05'0 0.0
2017-Jan-12 22:33N 29°46' W 095°05'0 0.0
2017-Jan-12 21:33N 29°46' W 095°05'1 0.3
2017-Jan-12 17:33N 29°46' W 095°06'4 3.7
2017-Jan-12 16:34N 29°44' W 095°02'4 3.8
2017-Jan-12 15:33N 29°41' W 094°59'8 7.6
2017-Jan-12 14:33N 29°46' W 095°06'0 0.0
2017-Jan-11 23:13N 29°46' W 095°06'0 0.0
2017-Jan-11 22:24N 29°46' W 095°06'0 0.0
2017-Jan-11 21:23N 29°46' W 095°06'0 0.0
2017-Jan-11 20:19N 29°46' W 095°06'1 1.6
2017-Jan-11 19:33N 29°46' W 095°05'0 0.1
2017-Jan-11 16:13N 29°46' W 095°05'0 0.1
2017-Jan-11 15:18N 29°47' W 095°05'0 0.0
2017-Jan-11 14:33N 29°47' W 095°05'0 0.0
2017-Jan-11 13:33N 29°47' W 095°05'0 0.0
2017-Jan-10 23:30N 29°47' W 095°05'0 0.0
2017-Jan-10 22:22N 29°47' W 095°05'0 0.0
2017-Jan-10 21:33N 29°47' W 095°05'0 0.0
2017-Jan-10 20:31N 29°47' W 095°05'0 0.0
2017-Jan-10 19:33N 29°47' W 095°05'1 0.4
2017-Jan-10 16:12N 29°46' W 095°06'1 1.6
2017-Jan-10 15:25N 29°47' W 095°05'0 0.0
2017-Jan-10 14:24N 29°47' W 095°05'0 0.0
2017-Jan-10 11:27N 29°47' W 095°05'0 0.0
2017-Jan-10 10:32N 29°47' W 095°05'0 0.0
2017-Jan-10 01:29N 29°47' W 095°05'0 0.0
2017-Jan-10 00:13N 29°47' W 095°05'0 0.0
2017-Jan-09 23:33N 29°47' W 095°05'0 0.0
2017-Jan-09 22:33N 29°47' W 095°05'0 0.0
2017-Jan-09 18:28N 29°47' W 095°05'0 0.0
2017-Jan-09 17:32N 29°47' W 095°05'0 0.0
2017-Jan-09 16:23N 29°47' W 095°05'0 0.0
2017-Jan-09 15:30N 29°47' W 095°05'0 0.0
2017-Jan-09 00:10N 29°47' W 095°05'0 0.0
2017-Jan-08 23:33N 29°47' W 095°05'0 0.0
2017-Jan-08 22:33N 29°47' W 095°05'0 0.0
2017-Jan-08 21:33N 29°47' W 095°05'0 0.0
2017-Jan-08 20:33N 29°47' W 095°05'0 0.0
2017-Jan-08 19:33N 29°47' W 095°05'0 0.0
2017-Jan-08 18:33N 29°47' W 095°05'0 0.0
2017-Jan-08 17:33N 29°47' W 095°05'0 0.0
2017-Jan-08 16:33N 29°47' W 095°05'0 0.0
2017-Jan-08 15:33N 29°47' W 095°05'0 0.0
2017-Jan-08 14:28N 29°47' W 095°05'0 0.0
2017-Jan-08 13:33N 29°47' W 095°05'0 0.0
2017-Jan-08 10:18N 29°47' W 095°05'0 0.0
2017-Jan-08 09:28N 29°47' W 095°05'0 0.0
2017-Jan-08 08:33N 29°47' W 095°05'0 0.0
2017-Jan-08 07:31N 29°47' W 095°05'0 0.0
2017-Jan-08 06:08N 29°47' W 095°05'0 0.0
2017-Jan-07 23:33N 29°46' W 095°05'0 0.1
2017-Jan-07 22:33N 29°47' W 095°05'0 0.0
2017-Jan-07 20:27N 29°47' W 095°05'0 0.0
2017-Jan-07 19:33N 29°47' W 095°05'0 0.0
2017-Jan-07 18:32N 29°47' W 095°05'0 0.0
2017-Jan-07 17:33N 29°47' W 095°05'0 0.0
2017-Jan-07 16:30N 29°47' W 095°05'0 0.0
2017-Jan-07 15:33N 29°47' W 095°05'0 0.0
2017-Jan-07 14:31N 29°47' W 095°05'0 0.0
2017-Jan-07 13:31N 29°47' W 095°05'0 0.0
2017-Jan-07 11:28N 29°47' W 095°05'0 0.0
2017-Jan-07 10:25N 29°47' W 095°05'0 0.0
2017-Jan-07 09:33N 29°47' W 095°05'0 0.0
2017-Jan-07 08:33N 29°47' W 095°05'0 0.0
2017-Jan-07 07:33N 29°47' W 095°05'0 0.0
2017-Jan-07 04:06N 29°47' W 095°05'1 0.3
2017-Jan-06 23:23N 29°46' W 095°06'0 0.0
2017-Jan-06 22:33N 29°46' W 095°06'0 0.0
2017-Jan-06 21:33N 29°46' W 095°06'0 0.0
2017-Jan-06 19:11N 29°46' W 095°06'1 0.6
2017-Jan-06 17:33N 29°46' W 095°05'1 0.7
2017-Jan-06 16:33N 29°47' W 095°05'0 0.0
2017-Jan-06 15:34N 29°47' W 095°05'0 0.0
2017-Jan-06 14:33N 29°47' W 095°05'  
Track history (hours):
 
Tides and Currents Weather Stations Pressure Air Temp Water Temp Dewpoint Dewpoint Depression Visibility Wind Speed Wind Dir Waves Ship Positions

Sid Moller

Owner: Genesis Marine, LLC, Houston, TX. More information available from US FCC via Universal Licensing System and Coast Guard Vessel Documentation Center.

Last reported at 2017-Jan-15 23:33 UTC. Time now 2017-Jan-16 10:55 UTC.
Position N 29°46' W 095°05'.

Length 26 m; draft 3 m.

Type: Ship (hazmat cat A). MMSI: 367504980.

Date/timePositionNaut miles runAvg speedWind from/ knotsBaromVisibWave heightAir tempDewpointWater temp
2017-Jan-15 23:33N 29°46' W 095°05'0 0.0
2017-Jan-15 22:33N 29°46' W 095°05'0 0.0
2017-Jan-15 21:33N 29°46' W 095°05'0 0.0
2017-Jan-15 20:33N 29°46' W 095°05'0 0.0
2017-Jan-15 19:33N 29°46' W 095°05'0 0.0
2017-Jan-15 18:33N 29°46' W 095°05'0 0.0
2017-Jan-15 17:33N 29°46' W 095°05'0 0.0
2017-Jan-15 16:33N 29°46' W 095°05'0 0.0
2017-Jan-15 15:33N 29°46' W 095°05'0 0.0
2017-Jan-15 14:33N 29°46' W 095°05'0 0.0
2017-Jan-14 23:28N 29°46' W 095°05'0 0.0
2017-Jan-14 22:33N 29°46' W 095°05'0 0.1
2017-Jan-14 21:33N 29°46' W 095°05'0 0.0
2017-Jan-14 20:33N 29°46' W 095°05'0 0.0
2017-Jan-14 19:33N 29°46' W 095°05'1 1.2
2017-Jan-14 18:33N 29°46' W 095°06'0 0.1
2017-Jan-14 17:24N 29°46' W 095°06'0 0.0
2017-Jan-14 16:20N 29°46' W 095°06'0 0.0
2017-Jan-14 15:29N 29°46' W 095°06'1 0.1
2017-Jan-13 23:31N 29°46' W 095°05'0 0.0
2017-Jan-13 22:33N 29°46' W 095°05'0 0.0
2017-Jan-13 21:33N 29°46' W 095°05'0 0.0
2017-Jan-13 20:33N 29°46' W 095°05'0 0.0
2017-Jan-13 19:33N 29°46' W 095°05'0 0.0
2017-Jan-13 18:33N 29°46' W 095°05'0 0.0
2017-Jan-13 17:33N 29°46' W 095°05'0 0.0
2017-Jan-13 16:33N 29°46' W 095°05'0 0.0
2017-Jan-13 15:33N 29°46' W 095°05'0 0.0
2017-Jan-13 14:33N 29°46' W 095°05'0 0.0
2017-Jan-13 12:09N 29°46' W 095°05'0 0.0
2017-Jan-12 23:33N 29°46' W 095°05'0 0.0
2017-Jan-12 22:33N 29°46' W 095°05'0 0.0
2017-Jan-12 21:33N 29°46' W 095°05'1 0.3
2017-Jan-12 17:33N 29°46' W 095°06'4 3.7
2017-Jan-12 16:34N 29°44' W 095°02'4 3.8
2017-Jan-12 15:33N 29°41' W 094°59'8 7.6
2017-Jan-12 14:33N 29°46' W 095°06'0 0.0
2017-Jan-11 23:13N 29°46' W 095°06'0 0.0
2017-Jan-11 22:24N 29°46' W 095°06'0 0.0
2017-Jan-11 21:23N 29°46' W 095°06'0 0.0
2017-Jan-11 20:19N 29°46' W 095°06'1 1.6
2017-Jan-11 19:33N 29°46' W 095°05'0 0.1
2017-Jan-11 16:13N 29°46' W 095°05'0 0.1
2017-Jan-11 15:18N 29°47' W 095°05'0 0.0
2017-Jan-11 14:33N 29°47' W 095°05'0 0.0
2017-Jan-11 13:33N 29°47' W 095°05'0 0.0
2017-Jan-10 23:30N 29°47' W 095°05'0 0.0
2017-Jan-10 22:22N 29°47' W 095°05'0 0.0
2017-Jan-10 21:33N 29°47' W 095°05'0 0.0
2017-Jan-10 20:31N 29°47' W 095°05'0 0.0
2017-Jan-10 19:33N 29°47' W 095°05'1 0.4
2017-Jan-10 16:12N 29°46' W 095°06'1 1.6
2017-Jan-10 15:25N 29°47' W 095°05'0 0.0
2017-Jan-10 14:24N 29°47' W 095°05'0 0.0
2017-Jan-10 11:27N 29°47' W 095°05'0 0.0
2017-Jan-10 10:32N 29°47' W 095°05'0 0.0
2017-Jan-10 01:29N 29°47' W 095°05'0 0.0
2017-Jan-10 00:13N 29°47' W 095°05'0 0.0
2017-Jan-09 23:33N 29°47' W 095°05'0 0.0
2017-Jan-09 22:33N 29°47' W 095°05'0 0.0
2017-Jan-09 18:28N 29°47' W 095°05'0 0.0
2017-Jan-09 17:32N 29°47' W 095°05'0 0.0
2017-Jan-09 16:23N 29°47' W 095°05'0 0.0
2017-Jan-09 15:30N 29°47' W 095°05'0 0.0
2017-Jan-09 00:10N 29°47' W 095°05'0 0.0
2017-Jan-08 23:33N 29°47' W 095°05'0 0.0
2017-Jan-08 22:33N 29°47' W 095°05'0 0.0
2017-Jan-08 21:33N 29°47' W 095°05'0 0.0
2017-Jan-08 20:33N 29°47' W 095°05'0 0.0
2017-Jan-08 19:33N 29°47' W 095°05'0 0.0
2017-Jan-08 18:33N 29°47' W 095°05'0 0.0
2017-Jan-08 17:33N 29°47' W 095°05'0 0.0
2017-Jan-08 16:33N 29°47' W 095°05'0 0.0
2017-Jan-08 15:33N 29°47' W 095°05'0 0.0
2017-Jan-08 14:28N 29°47' W 095°05'0 0.0
2017-Jan-08 13:33N 29°47' W 095°05'0 0.0
2017-Jan-08 10:18N 29°47' W 095°05'0 0.0
2017-Jan-08 09:28N 29°47' W 095°05'0 0.0
2017-Jan-08 08:33N 29°47' W 095°05'0 0.0
2017-Jan-08 07:31N 29°47' W 095°05'0 0.0
2017-Jan-08 06:08N 29°47' W 095°05'0 0.0
2017-Jan-07 23:33N 29°46' W 095°05'0 0.1
2017-Jan-07 22:33N 29°47' W 095°05'0 0.0
2017-Jan-07 20:27N 29°47' W 095°05'0 0.0
2017-Jan-07 19:33N 29°47' W 095°05'0 0.0
2017-Jan-07 18:32N 29°47' W 095°05'0 0.0
2017-Jan-07 17:33N 29°47' W 095°05'0 0.0
2017-Jan-07 16:30N 29°47' W 095°05'0 0.0
2017-Jan-07 15:33N 29°47' W 095°05'0 0.0
2017-Jan-07 14:31N 29°47' W 095°05'0 0.0
2017-Jan-07 13:31N 29°47' W 095°05'0 0.0
2017-Jan-07 11:28N 29°47' W 095°05'0 0.0
2017-Jan-07 10:25N 29°47' W 095°05'0 0.0
2017-Jan-07 09:33N 29°47' W 095°05'0 0.0
2017-Jan-07 08:33N 29°47' W 095°05'0 0.0
2017-Jan-07 07:33N 29°47' W 095°05'0 0.0
2017-Jan-07 04:06N 29°47' W 095°05'1 0.3
2017-Jan-06 23:23N 29°46' W 095°06'0 0.0
2017-Jan-06 22:33N 29°46' W 095°06'0 0.0
2017-Jan-06 21:33N 29°46' W 095°06'0 0.0
2017-Jan-06 19:11N 29°46' W 095°06'1 0.6
2017-Jan-06 17:33N 29°46' W 095°05'1 0.7
2017-Jan-06 16:33N 29°47' W 095°05'0 0.0
2017-Jan-06 15:34N 29°47' W 095°05'0 0.0
2017-Jan-06 14:33N 29°47' W 095°05'  

Dump ship's entire track history